Schley, Minnesota
Current Conditions -  °F | °C
As of 1:55 AM on Saturday 25 Oct 2014 (Local Time) from KY49 Reporting Station
Clear Clear  
Wind Chill: 52°   Ceiling: Unl
Heat Index: 52°   Visibility: 10mi
Dew Point: 32°   Wind: 14mph
Humidity: 47%   Direction: 280°W
Pressure: 29.89"   Gusts: 21mph
Location:  47.3012°N, 94.5426°W
Report Text: KY49 250655Z AUTO 28012G18KT 10SM CLR 11/00 A2989 RMK AO2 T01100000
Loading
Personal Weather Stations






























Interactive Weather Map
Tropical Storm Tracking
New forecast layout! Learn more

10-Day Weather Forecast

Advertisements
Track Severe Weather on mobile